地図

経路データ

SID SEASON NUMBER BASIN SUBBASIN NAME ISO_TIME NATURE LAT LON WMO_WIND WMO_PRES WMO_AGENCY TRACK_TYPE DIST2LAND LANDFALL IFLAG USA_AGENCY USA_ATCF_ID USA_LAT USA_LON USA_RECORD USA_STATUS USA_WIND USA_PRES USA_SSHS USA_R34_NE USA_R34_SE USA_R34_SW USA_R34_NW USA_R50_NE USA_R50_SE USA_R50_SW USA_R50_NW USA_R64_NE USA_R64_SE USA_R64_SW USA_R64_NW USA_POCI USA_ROCI USA_RMW USA_EYE TOKYO_LAT TOKYO_LON TOKYO_GRADE TOKYO_WIND TOKYO_PRES TOKYO_R50_DIR TOKYO_R50_LONG TOKYO_R50_SHORT TOKYO_R30_DIR TOKYO_R30_LONG TOKYO_R30_SHORT TOKYO_LAND CMA_LAT CMA_LON CMA_CAT CMA_WIND CMA_PRES HKO_LAT HKO_LON HKO_CAT HKO_WIND HKO_PRES NEWDELHI_LAT NEWDELHI_LON NEWDELHI_GRADE NEWDELHI_WIND NEWDELHI_PRES NEWDELHI_CI NEWDELHI_DP NEWDELHI_POCI REUNION_LAT REUNION_LON REUNION_TYPE REUNION_WIND REUNION_PRES REUNION_TNUM REUNION_CI REUNION_RMW REUNION_R34_NE REUNION_R34_SE REUNION_R34_SW REUNION_R34_NW REUNION_R50_NE REUNION_R50_SE REUNION_R50_SW REUNION_R50_NW REUNION_R64_NE REUNION_R64_SE REUNION_R64_SW REUNION_R64_NW BOM_LAT BOM_LON BOM_TYPE BOM_WIND BOM_PRES BOM_TNUM BOM_CI BOM_RMW BOM_R34_NE BOM_R34_SE BOM_R34_SW BOM_R34_NW BOM_R50_NE BOM_R50_SE BOM_R50_SW BOM_R50_NW BOM_R64_NE BOM_R64_SE BOM_R64_SW BOM_R64_NW BOM_ROCI BOM_POCI BOM_EYE BOM_POS_METHOD BOM_PRES_METHOD NADI_LAT NADI_LON NADI_CAT NADI_WIND NADI_PRES WELLINGTON_LAT WELLINGTON_LON WELLINGTON_WIND WELLINGTON_PRES DS824_LAT DS824_LON DS824_STAGE DS824_WIND DS824_PRES TD9636_LAT TD9636_LON TD9636_STAGE TD9636_WIND TD9636_PRES TD9635_LAT TD9635_LON TD9635_WIND TD9635_PRES TD9635_ROCI NEUMANN_LAT NEUMANN_LON NEUMANN_CLASS NEUMANN_WIND NEUMANN_PRES MLC_LAT MLC_LON MLC_CLASS MLC_WIND MLC_PRES USA_GUST BOM_GUST BOM_GUST_PER REUNION_GUST REUNION_GUST_PER USA_SEAHGT USA_SEARAD_NE USA_SEARAD_SE USA_SEARAD_SW USA_SEARAD_NW STORM_SPEED STORM_DIR
1919255N17139 1919 36 WP MM NOT_NAMED 1919-09-12 09:00:00 NR 16.5000 138.800 main 1511 1464 __________O___ -1 16.5000 138.800 2 15 308
1919255N17139 1919 36 WP MM NOT_NAMED 1919-09-12 12:00:00 NR 16.9582 138.194 main 1468 1425 __________P___ -1 16.9582 138.194 2 15 310
1919255N17139 1919 36 WP MM NOT_NAMED 1919-09-12 15:00:00 NR 17.4523 137.609 main 1429 1404 __________P___ -1 17.4523 137.609 2 15 315
1919255N17139 1919 36 WP MM NOT_NAMED 1919-09-12 18:00:00 NR 18.0202 137.070 main 1404 1388 __________P___ -1 18.0202 137.070 2 16 322
1919255N17139 1919 36 WP MM NOT_NAMED 1919-09-12 21:00:00 NR 18.7000 136.600 main 1394 1390 __________O___ -1 18.7000 136.600 2 17 332
1919255N17139 1919 36 WP MM NOT_NAMED 1919-09-13 00:00:00 NR 19.5116 136.216 main 1398 1303 __________P___ -1 19.5116 136.216 2 18 339
1919255N17139 1919 36 WP MM NOT_NAMED 1919-09-13 03:00:00 NR 20.3990 135.902 main 1292 1202 __________P___ -1 20.3990 135.902 2 19 343
1919255N17139 1919 36 WP MM NOT_NAMED 1919-09-13 06:00:00 NR 21.2870 135.638 main 1188 1097 __________P___ -1 21.2870 135.638 2 18 345
1919255N17139 1919 36 WP MM NOT_NAMED 1919-09-13 09:00:00 NR 22.1000 135.400 main 1097 1038 __________O___ -1 22.1000 135.400 2 15 342
1919255N17139 1919 36 WP MM NOT_NAMED 1919-09-13 12:00:00 NR 22.6710 135.147 main 1024 974 __________P___ -1 22.6710 135.147 2 12 337
1919255N17139 1919 36 WP MM NOT_NAMED 1919-09-13 15:00:00 NR 23.1697 134.917 main 964 905 __________P___ -1 23.1697 134.917 2 11 338
1919255N17139 1919 36 WP MM NOT_NAMED 1919-09-13 18:00:00 NR 23.6836 134.703 main 905 836 __________P___ -1 23.6836 134.703 2 12 341
1919255N17139 1919 36 WP MM NOT_NAMED 1919-09-13 21:00:00 NR 24.3000 134.500 main 836 747 __________O___ -1 24.3000 134.500 2 16 345
1919255N17139 1919 36 WP MM NOT_NAMED 1919-09-14 00:00:00 NR 25.1838 134.251 main 737 634 __________P___ -1 25.1838 134.251 2 19 347
1919255N17139 1919 36 WP MM NOT_NAMED 1919-09-14 03:00:00 NR 26.1703 134.014 main 624 529 __________P___ -1 26.1703 134.014 2 20 349
1919255N17139 1919 36 WP MM NOT_NAMED 1919-09-14 06:00:00 NR 27.1716 133.820 main 519 429 __________P___ -1 27.1716 133.820 2 20 352
1919255N17139 1919 36 WP MM NOT_NAMED 1919-09-14 09:00:00 NR 28.1000 133.700 main 429 364 __________O___ -1 28.1000 133.700 2 17 356
1919255N17139 1919 36 WP MM NOT_NAMED 1919-09-14 12:00:00 NR 28.8600 133.674 main 355 305 __________P___ -1 28.8600 133.674 2 14 0
1919255N17139 1919 36 WP MM NOT_NAMED 1919-09-14 15:00:00 NR 29.5343 133.728 main 305 271 __________P___ -1 29.5343 133.728 2 13 7
1919255N17139 1919 36 WP MM NOT_NAMED 1919-09-14 18:00:00 NR 30.1414 133.843 main 271 242 __________P___ -1 30.1414 133.843 2 12 11
1919255N17139 1919 36 WP MM NOT_NAMED 1919-09-14 21:00:00 NR 30.7000 134.000 main 242 196 __________O___ -1 30.7000 134.000 2 12 12
1919255N17139 1919 36 WP MM NOT_NAMED 1919-09-15 00:00:00 NR 31.2710 134.124 main 187 156 __________P___ -1 31.2710 134.124 2 11 13
1919255N17139 1919 36 WP MM NOT_NAMED 1919-09-15 03:00:00 NR 31.7965 134.289 main 156 114 __________P___ -1 31.7965 134.289 2 11 18
1919255N17139 1919 36 WP MM NOT_NAMED 1919-09-15 06:00:00 NR 32.2738 134.509 main 104 78 __________P___ -1 32.2738 134.509 2 10 25
1919255N17139 1919 36 WP MM NOT_NAMED 1919-09-15 09:00:00 NR 32.7000 134.800 main 78 71 __________O___ -1 32.7000 134.800 2 10 38
1919255N17139 1919 36 WP MM NOT_NAMED 1919-09-15 12:00:00 NR 33.0237 135.208 main 71 14 __________P___ -1 33.0237 135.208 2 10 51
1919255N17139 1919 36 WP MM NOT_NAMED 1919-09-15 15:00:00 NR 33.3067 135.679 main 14 0 __________P___ -1 33.3067 135.679 2 10 54
1919255N17139 1919 36 WP MM NOT_NAMED 1919-09-15 18:00:00 NR 33.6112 136.161 main 18 18 __________P___ -1 33.6112 136.161 2 10 48
1919255N17139 1919 36 WP MM NOT_NAMED 1919-09-15 21:00:00 NR 34.0000 136.600 main 27 0 __________O___ -1 34.0000 136.600 2 11 32
1919255N17139 1919 36 WP MM NOT_NAMED 1919-09-16 00:00:00 NR 34.5217 136.855 main 11 0 __________P___ -1 34.5217 136.855 2 12 19
1919255N17139 1919 36 WP MM NOT_NAMED 1919-09-16 03:00:00 NR 35.1388 137.072 main 0 0 __________P___ -1 35.1388 137.072 2 14 16
1919255N17139 1919 36 WP MM NOT_NAMED 1919-09-16 06:00:00 NR 35.8367 137.327 main 0 0 __________P___ -1 35.8367 137.327 2 16 19
1919255N17139 1919 36 WP MM NOT_NAMED 1919-09-16 09:00:00 NR 36.6000 137.700 main 0 0 __________O___ -1 36.6000 137.700 2 17 25
1919255N17139 1919 36 WP MM NOT_NAMED 1919-09-16 12:00:00 NR 37.4130 138.254 main 14 14 __________P___ -1 37.4130 138.254 2 19 31
1919255N17139 1919 36 WP MM NOT_NAMED 1919-09-16 15:00:00 NR 38.2605 138.967 main 37 14 __________P___ -1 38.2605 138.967 2 21 35
1919255N17139 1919 36 WP MM NOT_NAMED 1919-09-16 18:00:00 NR 39.1276 139.798 main 8 0 __________P___ -1 39.1276 139.798 2 22 38
1919255N17139 1919 36 WP MM NOT_NAMED 1919-09-16 21:00:00 NR 40.0000 140.700 main 0 __________O___ -1 40.0000 140.700 2 22 38

デジタル台風データ・検索

IBTrACS Databaseについて

本データベースは、米国NOAAが公開する1842年以降の世界の熱帯低気圧のベストトラックデータアーカイブInternational Best Track Archive for Climate Stewardship (IBTrACS)を、ウェブで閲覧しやすい形式に変換したものです。

最終更新日:2021-11-26